sensor_id;sensor_type;location;lat;lon;timestamp;P1;durP1;ratioP1;P2;durP2;ratioP2
32333;SDS011;18810;53.040;8.850;2022-11-15T00:00:45;43.28;;;25.92;;
32333;SDS011;18810;53.040;8.850;2022-11-15T00:03:15;46.92;;;27.25;;
32333;SDS011;18810;53.040;8.850;2022-11-15T00:05:41;45.38;;;26.92;;
32333;SDS011;18810;53.040;8.850;2022-11-15T00:08:07;43.50;;;26.08;;
32333;SDS011;18810;53.040;8.850;2022-11-15T00:10:33;42.58;;;25.77;;
32333;SDS011;18810;53.040;8.850;2022-11-15T00:13:03;43.83;;;26.55;;
32333;SDS011;18810;53.040;8.850;2022-11-15T00:15:36;48.20;;;27.13;;
32333;SDS011;18810;53.040;8.850;2022-11-15T00:18:06;39.92;;;25.92;;
32333;SDS011;18810;53.040;8.850;2022-11-15T00:20:36;42.00;;;25.13;;
32333;SDS011;18810;53.040;8.850;2022-11-15T00:23:03;40.30;;;24.50;;
32333;SDS011;18810;53.040;8.850;2022-11-15T00:25:29;43.33;;;25.75;;
32333;SDS011;18810;53.040;8.850;2022-11-15T00:27:56;47.65;;;27.35;;
32333;SDS011;18810;53.040;8.850;2022-11-15T00:30:22;43.90;;;25.35;;
32333;SDS011;18810;53.040;8.850;2022-11-15T00:32:48;46.60;;;26.35;;
32333;SDS011;18810;53.040;8.850;2022-11-15T00:35:14;41.70;;;24.70;;
32333;SDS011;18810;53.040;8.850;2022-11-15T00:37:40;45.50;;;25.40;;
32333;SDS011;18810;53.040;8.850;2022-11-15T00:40:06;46.03;;;25.08;;
32333;SDS011;18810;53.040;8.850;2022-11-15T00:42:33;48.38;;;25.73;;
32333;SDS011;18810;53.040;8.850;2022-11-15T00:44:59;40.00;;;24.23;;
32333;SDS011;18810;53.040;8.850;2022-11-15T00:47:24;44.08;;;25.08;;
32333;SDS011;18810;53.040;8.850;2022-11-15T00:49:50;41.45;;;24.92;;
32333;SDS011;18810;53.040;8.850;2022-11-15T00:52:17;40.97;;;25.08;;
32333;SDS011;18810;53.040;8.850;2022-11-15T00:54:43;43.25;;;24.75;;
32333;SDS011;18810;53.040;8.850;2022-11-15T00:57:09;41.75;;;25.52;;
32333;SDS011;18810;53.040;8.850;2022-11-15T00:59:35;39.67;;;24.27;;
32333;SDS011;18810;53.040;8.850;2022-11-15T01:02:01;40.42;;;24.70;;
32333;SDS011;18810;53.040;8.850;2022-11-15T01:04:27;38.88;;;23.58;;
32333;SDS011;18810;53.040;8.850;2022-11-15T01:06:53;40.33;;;24.55;;
32333;SDS011;18810;53.040;8.850;2022-11-15T01:09:19;43.25;;;24.75;;
32333;SDS011;18810;53.040;8.850;2022-11-15T01:11:45;41.53;;;24.17;;
32333;SDS011;18810;53.040;8.850;2022-11-15T01:14:11;41.72;;;24.75;;
32333;SDS011;18810;53.040;8.850;2022-11-15T01:16:37;44.05;;;24.58;;
32333;SDS011;18810;53.040;8.850;2022-11-15T01:19:03;38.15;;;23.55;;
32333;SDS011;18810;53.040;8.850;2022-11-15T01:21:29;39.70;;;24.65;;
32333;SDS011;18810;53.040;8.850;2022-11-15T01:23:56;42.60;;;25.02;;
32333;SDS011;18810;53.040;8.850;2022-11-15T01:26:22;41.92;;;24.85;;
32333;SDS011;18810;53.040;8.850;2022-11-15T01:28:49;43.38;;;25.10;;
32333;SDS011;18810;53.040;8.850;2022-11-15T01:31:16;44.10;;;25.15;;
32333;SDS011;18810;53.040;8.850;2022-11-15T01:33:44;43.65;;;25.15;;
32333;SDS011;18810;53.040;8.850;2022-11-15T01:36:12;43.25;;;24.52;;
32333;SDS011;18810;53.040;8.850;2022-11-15T01:38:40;41.03;;;24.77;;
32333;SDS011;18810;53.040;8.850;2022-11-15T01:41:06;45.08;;;25.25;;
32333;SDS011;18810;53.040;8.850;2022-11-15T01:43:33;43.28;;;24.83;;
32333;SDS011;18810;53.040;8.850;2022-11-15T01:46:02;48.28;;;27.77;;
32333;SDS011;18810;53.040;8.850;2022-11-15T01:48:50;47.63;;;26.40;;
32333;SDS011;18810;53.040;8.850;2022-11-15T01:51:20;43.70;;;25.73;;
32333;SDS011;18810;53.040;8.850;2022-11-15T01:53:49;42.70;;;25.17;;
32333;SDS011;18810;53.040;8.850;2022-11-15T01:56:19;45.85;;;25.90;;
32333;SDS011;18810;53.040;8.850;2022-11-15T01:58:48;37.93;;;24.40;;
32333;SDS011;18810;53.040;8.850;2022-11-15T02:01:16;41.65;;;25.63;;
32333;SDS011;18810;53.040;8.850;2022-11-15T02:03:50;43.67;;;25.88;;
32333;SDS011;18810;53.040;8.850;2022-11-15T02:06:21;40.03;;;24.38;;
32333;SDS011;18810;53.040;8.850;2022-11-15T02:08:47;44.30;;;24.73;;
32333;SDS011;18810;53.040;8.850;2022-11-15T02:11:14;40.83;;;24.75;;
32333;SDS011;18810;53.040;8.850;2022-11-15T02:13:41;43.45;;;25.13;;
32333;SDS011;18810;53.040;8.850;2022-11-15T02:18:34;35.28;;;23.40;;
32333;SDS011;18810;53.040;8.850;2022-11-15T02:21:12;37.28;;;22.70;;
32333;SDS011;18810;53.040;8.850;2022-11-15T02:23:51;39.67;;;22.73;;
32333;SDS011;18810;53.040;8.850;2022-11-15T02:26:36;37.30;;;22.80;;
32333;SDS011;18810;53.040;8.850;2022-11-15T02:29:31;32.88;;;21.80;;
32333;SDS011;18810;53.040;8.850;2022-11-15T02:32:32;36.13;;;22.70;;
32333;SDS011;18810;53.040;8.850;2022-11-15T02:37:51;38.00;;;23.65;;
32333;SDS011;18810;53.040;8.850;2022-11-15T02:42:45;36.35;;;22.17;;
32333;SDS011;18810;53.040;8.850;2022-11-15T02:45:37;38.45;;;22.58;;
32333;SDS011;18810;53.040;8.850;2022-11-15T02:48:08;34.60;;;22.20;;
32333;SDS011;18810;53.040;8.850;2022-11-15T02:50:35;38.05;;;22.83;;
32333;SDS011;18810;53.040;8.850;2022-11-15T02:53:02;38.53;;;23.15;;
32333;SDS011;18810;53.040;8.850;2022-11-15T02:55:32;35.25;;;21.90;;
32333;SDS011;18810;53.040;8.850;2022-11-15T03:00:56;38.85;;;23.20;;
32333;SDS011;18810;53.040;8.850;2022-11-15T03:06:45;38.42;;;23.13;;
32333;SDS011;18810;53.040;8.850;2022-11-15T03:12:07;40.83;;;23.58;;
32333;SDS011;18810;53.040;8.850;2022-11-15T03:14:56;42.38;;;22.75;;
32333;SDS011;18810;53.040;8.850;2022-11-15T03:17:43;40.22;;;22.15;;
32333;SDS011;18810;53.040;8.850;2022-11-15T03:20:20;36.78;;;22.33;;
32333;SDS011;18810;53.040;8.850;2022-11-15T03:22:46;37.63;;;23.45;;
32333;SDS011;18810;53.040;8.850;2022-11-15T03:25:18;42.25;;;22.48;;
32333;SDS011;18810;53.040;8.850;2022-11-15T03:27:48;38.05;;;22.15;;
32333;SDS011;18810;53.040;8.850;2022-11-15T03:30:19;41.70;;;22.83;;
32333;SDS011;18810;53.040;8.850;2022-11-15T03:32:50;35.38;;;21.02;;
32333;SDS011;18810;53.040;8.850;2022-11-15T03:35:19;34.97;;;20.52;;
32333;SDS011;18810;53.040;8.850;2022-11-15T03:40:20;37.08;;;22.25;;
32333;SDS011;18810;53.040;8.850;2022-11-15T03:45:31;33.55;;;21.25;;
32333;SDS011;18810;53.040;8.850;2022-11-15T03:51:08;38.78;;;22.77;;
32333;SDS011;18810;53.040;8.850;2022-11-15T03:53:34;38.30;;;22.33;;
32333;SDS011;18810;53.040;8.850;2022-11-15T03:56:00;36.55;;;22.75;;
32333;SDS011;18810;53.040;8.850;2022-11-15T03:58:26;39.75;;;22.92;;
32333;SDS011;18810;53.040;8.850;2022-11-15T04:00:52;39.55;;;22.42;;
32333;SDS011;18810;53.040;8.850;2022-11-15T04:03:18;41.25;;;21.13;;
32333;SDS011;18810;53.040;8.850;2022-11-15T04:05:46;36.20;;;22.02;;
32333;SDS011;18810;53.040;8.850;2022-11-15T04:08:12;36.13;;;21.60;;
32333;SDS011;18810;53.040;8.850;2022-11-15T04:10:38;36.33;;;21.98;;
32333;SDS011;18810;53.040;8.850;2022-11-15T04:13:04;35.92;;;21.88;;
32333;SDS011;18810;53.040;8.850;2022-11-15T04:15:30;35.45;;;21.67;;
32333;SDS011;18810;53.040;8.850;2022-11-15T04:17:57;33.58;;;21.00;;
32333;SDS011;18810;53.040;8.850;2022-11-15T04:25:57;36.67;;;21.77;;
32333;SDS011;18810;53.040;8.850;2022-11-15T04:28:28;37.13;;;21.80;;
32333;SDS011;18810;53.040;8.850;2022-11-15T04:30:53;37.42;;;21.30;;
32333;SDS011;18810;53.040;8.850;2022-11-15T04:33:19;35.75;;;21.58;;
32333;SDS011;18810;53.040;8.850;2022-11-15T04:35:45;31.40;;;19.60;;
32333;SDS011;18810;53.040;8.850;2022-11-15T04:38:31;36.00;;;21.42;;
32333;SDS011;18810;53.040;8.850;2022-11-15T04:40:58;32.15;;;21.25;;
32333;SDS011;18810;53.040;8.850;2022-11-15T04:43:24;34.53;;;20.30;;
32333;SDS011;18810;53.040;8.850;2022-11-15T04:45:50;31.33;;;20.27;;
32333;SDS011;18810;53.040;8.850;2022-11-15T04:48:16;29.75;;;19.73;;
32333;SDS011;18810;53.040;8.850;2022-11-15T04:50:42;30.75;;;20.40;;
32333;SDS011;18810;53.040;8.850;2022-11-15T04:53:08;31.65;;;20.45;;
32333;SDS011;18810;53.040;8.850;2022-11-15T04:55:34;33.78;;;20.55;;
32333;SDS011;18810;53.040;8.850;2022-11-15T04:58:00;30.25;;;20.27;;
32333;SDS011;18810;53.040;8.850;2022-11-15T05:00:27;31.95;;;19.70;;
32333;SDS011;18810;53.040;8.850;2022-11-15T05:02:54;35.42;;;21.02;;
32333;SDS011;18810;53.040;8.850;2022-11-15T05:05:38;32.72;;;20.13;;
32333;SDS011;18810;53.040;8.850;2022-11-15T05:08:04;32.35;;;19.50;;
32333;SDS011;18810;53.040;8.850;2022-11-15T05:10:30;33.10;;;20.15;;
32333;SDS011;18810;53.040;8.850;2022-11-15T05:12:56;33.58;;;19.98;;
32333;SDS011;18810;53.040;8.850;2022-11-15T05:15:22;27.88;;;17.98;;
32333;SDS011;18810;53.040;8.850;2022-11-15T05:17:48;28.30;;;18.63;;
32333;SDS011;18810;53.040;8.850;2022-11-15T05:20:14;31.70;;;18.85;;
32333;SDS011;18810;53.040;8.850;2022-11-15T05:22:41;28.38;;;18.10;;
32333;SDS011;18810;53.040;8.850;2022-11-15T05:25:07;32.53;;;18.88;;
32333;SDS011;18810;53.040;8.850;2022-11-15T05:27:33;28.88;;;18.33;;
32333;SDS011;18810;53.040;8.850;2022-11-15T05:29:59;29.35;;;18.52;;
32333;SDS011;18810;53.040;8.850;2022-11-15T05:32:25;28.60;;;18.67;;
32333;SDS011;18810;53.040;8.850;2022-11-15T05:34:52;26.48;;;17.85;;
32333;SDS011;18810;53.040;8.850;2022-11-15T05:37:18;28.35;;;18.10;;
32333;SDS011;18810;53.040;8.850;2022-11-15T05:39:44;28.85;;;18.17;;
32333;SDS011;18810;53.040;8.850;2022-11-15T05:42:10;26.35;;;18.42;;
32333;SDS011;18810;53.040;8.850;2022-11-15T05:44:39;29.65;;;20.05;;
32333;SDS011;18810;53.040;8.850;2022-11-15T05:47:08;30.52;;;19.23;;
32333;SDS011;18810;53.040;8.850;2022-11-15T05:49:37;28.13;;;18.88;;
32333;SDS011;18810;53.040;8.850;2022-11-15T05:52:07;33.58;;;19.70;;
32333;SDS011;18810;53.040;8.850;2022-11-15T05:54:37;29.65;;;19.10;;
32333;SDS011;18810;53.040;8.850;2022-11-15T05:57:04;29.35;;;19.88;;
32333;SDS011;18810;53.040;8.850;2022-11-15T05:59:30;31.98;;;19.33;;
32333;SDS011;18810;53.040;8.850;2022-11-15T06:01:58;29.00;;;19.52;;
32333;SDS011;18810;53.040;8.850;2022-11-15T06:04:23;30.02;;;18.83;;
32333;SDS011;18810;53.040;8.850;2022-11-15T06:06:49;29.73;;;18.85;;
32333;SDS011;18810;53.040;8.850;2022-11-15T06:09:15;26.85;;;18.60;;
32333;SDS011;18810;53.040;8.850;2022-11-15T06:11:40;26.58;;;18.02;;
32333;SDS011;18810;53.040;8.850;2022-11-15T06:14:06;33.92;;;19.58;;
32333;SDS011;18810;53.040;8.850;2022-11-15T06:16:32;32.58;;;18.95;;
32333;SDS011;18810;53.040;8.850;2022-11-15T06:18:57;29.25;;;18.50;;
32333;SDS011;18810;53.040;8.850;2022-11-15T06:21:23;29.45;;;19.38;;
32333;SDS011;18810;53.040;8.850;2022-11-15T06:23:49;35.85;;;20.25;;
32333;SDS011;18810;53.040;8.850;2022-11-15T06:26:14;29.92;;;18.45;;
32333;SDS011;18810;53.040;8.850;2022-11-15T06:28:40;26.38;;;18.33;;
32333;SDS011;18810;53.040;8.850;2022-11-15T06:31:06;32.88;;;19.95;;
32333;SDS011;18810;53.040;8.850;2022-11-15T06:33:33;27.15;;;18.48;;
32333;SDS011;18810;53.040;8.850;2022-11-15T06:36:00;29.15;;;18.83;;
32333;SDS011;18810;53.040;8.850;2022-11-15T06:38:30;27.13;;;18.67;;
32333;SDS011;18810;53.040;8.850;2022-11-15T06:41:00;27.77;;;17.85;;
32333;SDS011;18810;53.040;8.850;2022-11-15T06:43:30;29.20;;;17.92;;
32333;SDS011;18810;53.040;8.850;2022-11-15T06:45:59;31.92;;;19.38;;
32333;SDS011;18810;53.040;8.850;2022-11-15T06:48:26;28.67;;;18.55;;
32333;SDS011;18810;53.040;8.850;2022-11-15T06:50:53;32.13;;;19.45;;
32333;SDS011;18810;53.040;8.850;2022-11-15T06:53:20;29.17;;;18.58;;
32333;SDS011;18810;53.040;8.850;2022-11-15T06:55:46;31.58;;;18.65;;
32333;SDS011;18810;53.040;8.850;2022-11-15T06:58:13;28.80;;;19.08;;
32333;SDS011;18810;53.040;8.850;2022-11-15T07:00:39;31.95;;;18.77;;
32333;SDS011;18810;53.040;8.850;2022-11-15T07:03:05;31.67;;;18.88;;
32333;SDS011;18810;53.040;8.850;2022-11-15T07:05:31;29.13;;;19.23;;
32333;SDS011;18810;53.040;8.850;2022-11-15T07:07:57;28.50;;;19.27;;
32333;SDS011;18810;53.040;8.850;2022-11-15T07:10:23;30.30;;;19.23;;
32333;SDS011;18810;53.040;8.850;2022-11-15T07:12:52;29.27;;;18.70;;
32333;SDS011;18810;53.040;8.850;2022-11-15T07:15:19;33.13;;;19.17;;
32333;SDS011;18810;53.040;8.850;2022-11-15T07:17:46;28.35;;;18.98;;
32333;SDS011;18810;53.040;8.850;2022-11-15T07:20:12;30.58;;;20.05;;
32333;SDS011;18810;53.040;8.850;2022-11-15T07:22:39;28.70;;;18.17;;
32333;SDS011;18810;53.040;8.850;2022-11-15T07:25:05;30.75;;;18.42;;
32333;SDS011;18810;53.040;8.850;2022-11-15T07:27:31;27.88;;;18.73;;
32333;SDS011;18810;53.040;8.850;2022-11-15T07:29:57;34.40;;;19.27;;
32333;SDS011;18810;53.040;8.850;2022-11-15T07:32:23;27.98;;;18.58;;
32333;SDS011;18810;53.040;8.850;2022-11-15T07:34:49;28.25;;;19.52;;
32333;SDS011;18810;53.040;8.850;2022-11-15T07:37:14;30.45;;;18.90;;
32333;SDS011;18810;53.040;8.850;2022-11-15T07:39:41;29.90;;;19.70;;
32333;SDS011;18810;53.040;8.850;2022-11-15T07:42:07;29.70;;;19.17;;
32333;SDS011;18810;53.040;8.850;2022-11-15T07:44:51;28.02;;;18.63;;
32333;SDS011;18810;53.040;8.850;2022-11-15T07:47:17;29.85;;;19.35;;
32333;SDS011;18810;53.040;8.850;2022-11-15T07:52:13;31.17;;;19.35;;
32333;SDS011;18810;53.040;8.850;2022-11-15T07:54:39;27.67;;;19.05;;
32333;SDS011;18810;53.040;8.850;2022-11-15T07:57:05;27.40;;;19.17;;
32333;SDS011;18810;53.040;8.850;2022-11-15T07:59:32;28.33;;;17.52;;
32333;SDS011;18810;53.040;8.850;2022-11-15T08:01:57;27.00;;;17.25;;
32333;SDS011;18810;53.040;8.850;2022-11-15T08:04:23;26.13;;;17.90;;
32333;SDS011;18810;53.040;8.850;2022-11-15T08:06:49;25.77;;;18.00;;
32333;SDS011;18810;53.040;8.850;2022-11-15T08:09:14;25.42;;;17.00;;
32333;SDS011;18810;53.040;8.850;2022-11-15T08:11:40;24.88;;;16.40;;
32333;SDS011;18810;53.040;8.850;2022-11-15T08:14:06;25.58;;;17.70;;
32333;SDS011;18810;53.040;8.850;2022-11-15T08:16:31;28.58;;;16.75;;
32333;SDS011;18810;53.040;8.850;2022-11-15T08:18:57;27.27;;;17.83;;
32333;SDS011;18810;53.040;8.850;2022-11-15T08:21:23;23.70;;;17.70;;
32333;SDS011;18810;53.040;8.850;2022-11-15T08:23:49;25.52;;;16.45;;
32333;SDS011;18810;53.040;8.850;2022-11-15T08:26:15;23.10;;;16.02;;
32333;SDS011;18810;53.040;8.850;2022-11-15T08:28:41;27.13;;;16.45;;
32333;SDS011;18810;53.040;8.850;2022-11-15T08:31:12;22.95;;;16.65;;
32333;SDS011;18810;53.040;8.850;2022-11-15T08:33:42;23.38;;;16.23;;
32333;SDS011;18810;53.040;8.850;2022-11-15T08:36:11;25.73;;;16.10;;
32333;SDS011;18810;53.040;8.850;2022-11-15T08:38:39;22.25;;;15.85;;
32333;SDS011;18810;53.040;8.850;2022-11-15T08:41:05;22.58;;;15.30;;
32333;SDS011;18810;53.040;8.850;2022-11-15T08:43:31;19.98;;;14.95;;
32333;SDS011;18810;53.040;8.850;2022-11-15T08:45:57;23.67;;;15.23;;
32333;SDS011;18810;53.040;8.850;2022-11-15T08:48:23;24.25;;;15.48;;
32333;SDS011;18810;53.040;8.850;2022-11-15T08:50:49;23.40;;;16.77;;
32333;SDS011;18810;53.040;8.850;2022-11-15T08:53:19;22.45;;;17.63;;
32333;SDS011;18810;53.040;8.850;2022-11-15T08:55:45;25.20;;;16.00;;
32333;SDS011;18810;53.040;8.850;2022-11-15T08:58:11;26.67;;;16.65;;
32333;SDS011;18810;53.040;8.850;2022-11-15T09:00:36;24.80;;;16.02;;
32333;SDS011;18810;53.040;8.850;2022-11-15T09:03:06;22.67;;;14.85;;
32333;SDS011;18810;53.040;8.850;2022-11-15T09:05:35;26.35;;;15.27;;
32333;SDS011;18810;53.040;8.850;2022-11-15T09:08:02;25.63;;;16.35;;
32333;SDS011;18810;53.040;8.850;2022-11-15T09:10:28;22.95;;;15.95;;
32333;SDS011;18810;53.040;8.850;2022-11-15T09:12:56;27.08;;;15.50;;
32333;SDS011;18810;53.040;8.850;2022-11-15T09:15:22;25.33;;;15.35;;
32333;SDS011;18810;53.040;8.850;2022-11-15T09:17:47;21.90;;;14.57;;
32333;SDS011;18810;53.040;8.850;2022-11-15T09:20:13;23.60;;;15.57;;
32333;SDS011;18810;53.040;8.850;2022-11-15T09:22:39;24.67;;;15.40;;
32333;SDS011;18810;53.040;8.850;2022-11-15T09:25:05;22.00;;;15.20;;
32333;SDS011;18810;53.040;8.850;2022-11-15T09:27:31;21.52;;;15.00;;
32333;SDS011;18810;53.040;8.850;2022-11-15T09:29:57;23.92;;;15.27;;
32333;SDS011;18810;53.040;8.850;2022-11-15T09:32:23;19.80;;;14.15;;
32333;SDS011;18810;53.040;8.850;2022-11-15T09:34:49;26.13;;;15.43;;
32333;SDS011;18810;53.040;8.850;2022-11-15T09:37:15;22.77;;;15.30;;
32333;SDS011;18810;53.040;8.850;2022-11-15T09:39:41;25.08;;;15.07;;
32333;SDS011;18810;53.040;8.850;2022-11-15T09:47:23;17.52;;;13.18;;
32333;SDS011;18810;53.040;8.850;2022-11-15T09:49:57;24.17;;;14.23;;
32333;SDS011;18810;53.040;8.850;2022-11-15T09:52:25;19.40;;;13.48;;
32333;SDS011;18810;53.040;8.850;2022-11-15T09:54:52;18.10;;;12.55;;
32333;SDS011;18810;53.040;8.850;2022-11-15T09:57:21;22.30;;;12.65;;
32333;SDS011;18810;53.040;8.850;2022-11-15T10:00:17;16.85;;;12.10;;
32333;SDS011;18810;53.040;8.850;2022-11-15T10:05:59;13.88;;;11.75;;
32333;SDS011;18810;53.040;8.850;2022-11-15T10:11:24;18.17;;;11.25;;
32333;SDS011;18810;53.040;8.850;2022-11-15T10:13:54;17.17;;;11.82;;
32333;SDS011;18810;53.040;8.850;2022-11-15T10:21:32;19.95;;;11.27;;
32333;SDS011;18810;53.040;8.850;2022-11-15T10:24:10;17.00;;;11.35;;
32333;SDS011;18810;53.040;8.850;2022-11-15T10:26:36;15.32;;;11.15;;
32333;SDS011;18810;53.040;8.850;2022-11-15T10:29:02;15.90;;;11.18;;
32333;SDS011;18810;53.040;8.850;2022-11-15T10:31:28;15.90;;;10.82;;
32333;SDS011;18810;53.040;8.850;2022-11-15T10:33:59;13.95;;;10.38;;
32333;SDS011;18810;53.040;8.850;2022-11-15T10:36:37;15.90;;;10.27;;
32333;SDS011;18810;53.040;8.850;2022-11-15T10:39:02;14.02;;;9.95;;
32333;SDS011;18810;53.040;8.850;2022-11-15T10:41:29;13.75;;;10.20;;
32333;SDS011;18810;53.040;8.850;2022-11-15T10:46:31;11.45;;;9.43;;
32333;SDS011;18810;53.040;8.850;2022-11-15T10:49:12;14.75;;;9.60;;
32333;SDS011;18810;53.040;8.850;2022-11-15T10:54:10;15.00;;;9.82;;
32333;SDS011;18810;53.040;8.850;2022-11-15T10:56:38;12.50;;;9.05;;
32333;SDS011;18810;53.040;8.850;2022-11-15T10:59:12;18.52;;;11.18;;
32333;SDS011;18810;53.040;8.850;2022-11-15T11:01:47;18.13;;;10.98;;
32333;SDS011;18810;53.040;8.850;2022-11-15T11:04:13;17.83;;;9.77;;
32333;SDS011;18810;53.040;8.850;2022-11-15T11:06:56;13.93;;;9.23;;
32333;SDS011;18810;53.040;8.850;2022-11-15T11:09:34;13.10;;;8.55;;
32333;SDS011;18810;53.040;8.850;2022-11-15T11:12:01;12.88;;;8.52;;
32333;SDS011;18810;53.040;8.850;2022-11-15T11:14:36;12.98;;;9.00;;
32333;SDS011;18810;53.040;8.850;2022-11-15T11:17:12;16.92;;;9.80;;
32333;SDS011;18810;53.040;8.850;2022-11-15T11:22:27;10.93;;;7.72;;
32333;SDS011;18810;53.040;8.850;2022-11-15T11:33:32;8.65;;;7.30;;
32333;SDS011;18810;53.040;8.850;2022-11-15T11:44:23;8.77;;;6.53;;
32333;SDS011;18810;53.040;8.850;2022-11-15T11:47:00;10.07;;;6.25;;
32333;SDS011;18810;53.040;8.850;2022-11-15T11:49:39;8.35;;;6.10;;
32333;SDS011;18810;53.040;8.850;2022-11-15T11:58:43;6.93;;;5.40;;
32333;SDS011;18810;53.040;8.850;2022-11-15T12:00:38;6.38;;;5.78;;
32333;SDS011;18810;53.040;8.850;2022-11-15T12:09:33;8.20;;;5.75;;
32333;SDS011;18810;53.040;8.850;2022-11-15T12:15:02;5.90;;;5.18;;
32333;SDS011;18810;53.040;8.850;2022-11-15T12:17:37;6.35;;;5.35;;
32333;SDS011;18810;53.040;8.850;2022-11-15T12:20:19;8.10;;;5.32;;
32333;SDS011;18810;53.040;8.850;2022-11-15T12:30:13;6.65;;;4.78;;
32333;SDS011;18810;53.040;8.850;2022-11-15T12:33:00;6.45;;;4.63;;
32333;SDS011;18810;53.040;8.850;2022-11-15T12:35:29;8.23;;;5.90;;
32333;SDS011;18810;53.040;8.850;2022-11-15T12:38:00;9.85;;;6.88;;
32333;SDS011;18810;53.040;8.850;2022-11-15T12:40:27;9.50;;;6.53;;
32333;SDS011;18810;53.040;8.850;2022-11-15T12:43:32;12.65;;;6.20;;
32333;SDS011;18810;53.040;8.850;2022-11-15T12:48:58;6.55;;;4.88;;
32333;SDS011;18810;53.040;8.850;2022-11-15T12:56:57;7.30;;;4.80;;
32333;SDS011;18810;53.040;8.850;2022-11-15T13:02:39;7.90;;;4.72;;
32333;SDS011;18810;53.040;8.850;2022-11-15T13:28:03;3.03;;;2.20;;
32333;SDS011;18810;53.040;8.850;2022-11-15T13:30:34;3.40;;;2.40;;
32333;SDS011;18810;53.040;8.850;2022-11-15T13:33:08;3.35;;;2.40;;
32333;SDS011;18810;53.040;8.850;2022-11-15T13:35:39;2.88;;;2.30;;
32333;SDS011;18810;53.040;8.850;2022-11-15T13:38:06;2.90;;;2.60;;
32333;SDS011;18810;53.040;8.850;2022-11-15T13:40:42;4.22;;;2.53;;
32333;SDS011;18810;53.040;8.850;2022-11-15T13:48:35;3.63;;;2.30;;
32333;SDS011;18810;53.040;8.850;2022-11-15T13:51:05;3.20;;;2.15;;
32333;SDS011;18810;53.040;8.850;2022-11-15T13:53:39;3.50;;;2.33;;
32333;SDS011;18810;53.040;8.850;2022-11-15T13:56:07;2.45;;;2.25;;
32333;SDS011;18810;53.040;8.850;2022-11-15T13:58:36;2.97;;;2.38;;
32333;SDS011;18810;53.040;8.850;2022-11-15T14:01:04;2.70;;;2.33;;
32333;SDS011;18810;53.040;8.850;2022-11-15T14:03:35;6.15;;;2.92;;
32333;SDS011;18810;53.040;8.850;2022-11-15T14:06:13;3.08;;;2.35;;
32333;SDS011;18810;53.040;8.850;2022-11-15T14:11:30;5.82;;;2.17;;
32333;SDS011;18810;53.040;8.850;2022-11-15T14:14:04;3.85;;;2.10;;
32333;SDS011;18810;53.040;8.850;2022-11-15T14:19:00;2.30;;;2.10;;
32333;SDS011;18810;53.040;8.850;2022-11-15T14:21:26;4.05;;;2.78;;
32333;SDS011;18810;53.040;8.850;2022-11-15T14:23:52;2.92;;;2.40;;
32333;SDS011;18810;53.040;8.850;2022-11-15T14:26:28;2.30;;;2.10;;
32333;SDS011;18810;53.040;8.850;2022-11-15T14:28:56;4.00;;;2.28;;
32333;SDS011;18810;53.040;8.850;2022-11-15T14:31:22;5.10;;;2.33;;
32333;SDS011;18810;53.040;8.850;2022-11-15T14:33:48;2.65;;;2.40;;
32333;SDS011;18810;53.040;8.850;2022-11-15T14:36:16;3.25;;;2.15;;
32333;SDS011;18810;53.040;8.850;2022-11-15T14:38:44;4.78;;;2.90;;
32333;SDS011;18810;53.040;8.850;2022-11-15T14:41:15;6.20;;;2.70;;
32333;SDS011;18810;53.040;8.850;2022-11-15T14:43:42;5.22;;;2.78;;
32333;SDS011;18810;53.040;8.850;2022-11-15T14:46:08;5.63;;;2.90;;
32333;SDS011;18810;53.040;8.850;2022-11-15T14:48:34;5.95;;;2.97;;
32333;SDS011;18810;53.040;8.850;2022-11-15T14:51:01;3.58;;;2.72;;
32333;SDS011;18810;53.040;8.850;2022-11-15T14:53:27;4.40;;;3.00;;
32333;SDS011;18810;53.040;8.850;2022-11-15T14:55:53;4.55;;;3.10;;
32333;SDS011;18810;53.040;8.850;2022-11-15T14:58:19;8.18;;;4.40;;
32333;SDS011;18810;53.040;8.850;2022-11-15T15:00:45;9.25;;;5.05;;
32333;SDS011;18810;53.040;8.850;2022-11-15T15:03:11;6.45;;;4.47;;
32333;SDS011;18810;53.040;8.850;2022-11-15T15:05:39;4.80;;;3.25;;
32333;SDS011;18810;53.040;8.850;2022-11-15T15:08:06;3.80;;;3.30;;
32333;SDS011;18810;53.040;8.850;2022-11-15T15:10:34;4.35;;;3.50;;
32333;SDS011;18810;53.040;8.850;2022-11-15T15:13:01;3.50;;;3.17;;
32333;SDS011;18810;53.040;8.850;2022-11-15T15:15:37;5.68;;;3.80;;
32333;SDS011;18810;53.040;8.850;2022-11-15T15:18:03;6.95;;;3.90;;
32333;SDS011;18810;53.040;8.850;2022-11-15T15:20:30;5.68;;;3.72;;
32333;SDS011;18810;53.040;8.850;2022-11-15T15:22:57;5.53;;;3.42;;
32333;SDS011;18810;53.040;8.850;2022-11-15T15:25:26;5.63;;;4.00;;
32333;SDS011;18810;53.040;8.850;2022-11-15T15:27:53;5.03;;;4.47;;
32333;SDS011;18810;53.040;8.850;2022-11-15T15:30:20;5.28;;;3.92;;
32333;SDS011;18810;53.040;8.850;2022-11-15T15:32:46;6.75;;;4.57;;
32333;SDS011;18810;53.040;8.850;2022-11-15T15:35:13;5.80;;;4.60;;
32333;SDS011;18810;53.040;8.850;2022-11-15T15:37:39;6.05;;;4.40;;
32333;SDS011;18810;53.040;8.850;2022-11-15T15:40:14;7.85;;;4.43;;
32333;SDS011;18810;53.040;8.850;2022-11-15T15:42:41;5.32;;;4.18;;
32333;SDS011;18810;53.040;8.850;2022-11-15T15:45:08;5.22;;;4.70;;
32333;SDS011;18810;53.040;8.850;2022-11-15T15:47:34;6.97;;;5.30;;
32333;SDS011;18810;53.040;8.850;2022-11-15T15:50:00;5.95;;;4.82;;
32333;SDS011;18810;53.040;8.850;2022-11-15T15:52:26;7.35;;;5.10;;
32333;SDS011;18810;53.040;8.850;2022-11-15T15:54:52;5.97;;;5.03;;
32333;SDS011;18810;53.040;8.850;2022-11-15T15:57:18;8.68;;;4.75;;
32333;SDS011;18810;53.040;8.850;2022-11-15T15:59:43;7.97;;;5.32;;
32333;SDS011;18810;53.040;8.850;2022-11-15T16:02:13;7.95;;;5.43;;
32333;SDS011;18810;53.040;8.850;2022-11-15T16:04:39;7.05;;;5.30;;
32333;SDS011;18810;53.040;8.850;2022-11-15T16:07:05;7.13;;;5.30;;
32333;SDS011;18810;53.040;8.850;2022-11-15T16:09:31;10.98;;;7.22;;
32333;SDS011;18810;53.040;8.850;2022-11-15T16:12:16;11.88;;;6.43;;
32333;SDS011;18810;53.040;8.850;2022-11-15T16:14:41;9.75;;;5.78;;
32333;SDS011;18810;53.040;8.850;2022-11-15T16:17:15;7.40;;;5.32;;
32333;SDS011;18810;53.040;8.850;2022-11-15T16:19:44;7.07;;;5.20;;
32333;SDS011;18810;53.040;8.850;2022-11-15T16:22:10;7.97;;;5.50;;
32333;SDS011;18810;53.040;8.850;2022-11-15T16:24:36;9.73;;;5.60;;
32333;SDS011;18810;53.040;8.850;2022-11-15T16:27:02;7.90;;;5.80;;
32333;SDS011;18810;53.040;8.850;2022-11-15T16:29:28;8.73;;;6.10;;
32333;SDS011;18810;53.040;8.850;2022-11-15T16:31:54;9.18;;;5.57;;
32333;SDS011;18810;53.040;8.850;2022-11-15T16:34:21;8.23;;;5.63;;
32333;SDS011;18810;53.040;8.850;2022-11-15T16:36:47;6.13;;;5.38;;
32333;SDS011;18810;53.040;8.850;2022-11-15T16:39:13;7.35;;;6.05;;
32333;SDS011;18810;53.040;8.850;2022-11-15T16:41:42;9.82;;;6.72;;
32333;SDS011;18810;53.040;8.850;2022-11-15T16:44:14;7.57;;;6.55;;
32333;SDS011;18810;53.040;8.850;2022-11-15T16:46:43;10.18;;;6.85;;
32333;SDS011;18810;53.040;8.850;2022-11-15T16:49:15;10.02;;;6.78;;
32333;SDS011;18810;53.040;8.850;2022-11-15T16:51:41;8.73;;;6.50;;
32333;SDS011;18810;53.040;8.850;2022-11-15T16:54:11;8.45;;;6.65;;
32333;SDS011;18810;53.040;8.850;2022-11-15T16:56:38;8.90;;;7.10;;
32333;SDS011;18810;53.040;8.850;2022-11-15T16:59:04;7.53;;;6.25;;